Time;durP1;ratioP1;P1;durP2;ratioP2;P2;SDS_P1;SDS_P2;PMS_P1;PMS_P2;Temp;Humidity;BMP_temperature;BMP_pressure;BME280_temperature;BME280_humidity;BME280_pressure;Samples;Min_cycle;Max_cycle;Signal;HPM_P1;HPM_P2
2023/08/03 00:01:57;;;;;;;25.27;3.92;;;;;;;;;;4994628;28;20049;-72
2023/08/03 00:04:22;;;;;;;25.90;4.13;;;;;;;;;;5015694;28;20052;-71
2023/08/03 00:06:47;;;;;;;30.83;4.50;;;;;;;;;;5014907;28;20750;-73
2023/08/03 00:09:15;;;;;;;23.77;3.55;;;;;;;;;;5015239;28;20034;-71
2023/08/03 00:11:40;;;;;;;23.75;4.07;;;;;;;;;;4997861;28;20148;-76
2023/08/03 00:14:06;;;;;;;25.88;3.50;;;;;;;;;;5014824;28;20039;-75
2023/08/03 00:16:31;;;;;;;29.17;3.90;;;;;;;;;;5012665;28;20115;-75
2023/08/03 00:18:58;;;;;;;28.70;3.63;;;;;;;;;;5010122;28;20037;-71
2023/08/03 00:21:24;;;;;;;19.80;3.17;;;;;;;;;;4997897;28;20710;-71
2023/08/03 00:23:54;;;;;;;23.20;3.45;;;;;;;;;;5013595;28;20155;-71
2023/08/03 00:26:19;;;;;;;25.85;3.60;;;;;;;;;;5017590;28;21903;-73
2023/08/03 00:28:44;;;;;;;24.13;3.92;;;;;;;;;;5014387;28;20041;-72
2023/08/03 00:31:09;;;;;;;20.70;3.78;;;;;;;;;;5002274;28;20083;-72
2023/08/03 00:33:35;;;;;;;18.10;2.90;;;;;;;;;;5017265;28;20107;-72
2023/08/03 00:36:02;;;;;;;20.95;3.05;;;;;;;;;;5018715;28;20040;-72
2023/08/03 00:38:30;;;;;;;15.13;3.03;;;;;;;;;;5018958;28;20071;-73
2023/08/03 00:40:58;;;;;;;21.10;3.13;;;;;;;;;;4998133;28;20033;-72
2023/08/03 00:43:23;;;;;;;19.92;2.80;;;;;;;;;;5016697;28;20432;-71
2023/08/03 00:45:49;;;;;;;19.92;3.00;;;;;;;;;;5016617;28;20025;-73
2023/08/03 00:48:14;;;;;;;23.58;3.17;;;;;;;;;;5015506;28;20036;-71
2023/08/03 00:50:39;;;;;;;19.88;3.30;;;;;;;;;;4999337;28;20037;-72
2023/08/03 00:53:05;;;;;;;21.80;3.13;;;;;;;;;;5016729;28;20564;-73
2023/08/03 00:55:31;;;;;;;12.43;2.42;;;;;;;;;;5015929;28;20095;-70
2023/08/03 00:57:56;;;;;;;12.43;2.70;;;;;;;;;;5016526;28;20071;-73
2023/08/03 01:00:22;;;;;;;18.23;2.88;;;;;;;;;;4996992;28;20037;-73
2023/08/03 01:02:47;;;;;;;14.35;2.78;;;;;;;;;;5016639;28;20049;-72
2023/08/03 01:05:12;;;;;;;15.25;2.97;;;;;;;;;;5015614;28;20032;-73
2023/08/03 01:07:38;;;;;;;12.27;2.50;;;;;;;;;;4997297;28;20144;-71
2023/08/03 01:10:03;;;;;;;15.70;2.78;;;;;;;;;;4997687;28;20551;-73
2023/08/03 01:12:29;;;;;;;17.80;2.55;;;;;;;;;;5014763;28;20037;-71
2023/08/03 01:14:54;;;;;;;9.38;2.67;;;;;;;;;;5015722;28;20041;-71
2023/08/03 01:17:20;;;;;;;15.80;2.88;;;;;;;;;;5015114;28;20036;-73
2023/08/03 01:19:45;;;;;;;16.55;3.65;;;;;;;;;;5016336;28;20489;-72
2023/08/03 01:22:16;;;;;;;15.18;3.67;;;;;;;;;;4983074;28;20507;-72
2023/08/03 01:24:41;;;;;;;18.65;3.70;;;;;;;;;;5000040;28;20041;-75
2023/08/03 01:27:07;;;;;;;18.23;3.63;;;;;;;;;;4999794;28;20683;-74
2023/08/03 01:29:32;;;;;;;19.20;4.30;;;;;;;;;;4998390;28;20029;-71
2023/08/03 01:32:00;;;;;;;17.70;4.40;;;;;;;;;;4996952;28;20040;-72
2023/08/03 01:34:26;;;;;;;12.38;4.10;;;;;;;;;;5013992;28;20029;-73
2023/08/03 01:36:56;;;;;;;16.80;4.35;;;;;;;;;;4997086;28;20060;-73
2023/08/03 01:39:27;;;;;;;17.92;4.28;;;;;;;;;;5015197;28;20071;-74
2023/08/03 01:41:52;;;;;;;16.35;3.72;;;;;;;;;;5013238;28;20083;-72
2023/08/03 01:44:20;;;;;;;14.85;3.63;;;;;;;;;;5016479;28;20041;-72
2023/08/03 01:46:45;;;;;;;19.85;4.47;;;;;;;;;;5017146;28;20036;-72
2023/08/03 01:49:10;;;;;;;14.23;3.80;;;;;;;;;;5013977;28;20041;-73
2023/08/03 01:51:36;;;;;;;14.45;4.10;;;;;;;;;;5014171;28;20776;-72
2023/08/03 01:54:01;;;;;;;15.43;3.65;;;;;;;;;;4997055;28;20064;-72
2023/08/03 01:56:26;;;;;;;15.95;4.00;;;;;;;;;;5016692;28;20091;-71
2023/08/03 01:58:54;;;;;;;21.83;4.45;;;;;;;;;;5015462;28;20063;-72
2023/08/03 02:01:19;;;;;;;18.63;4.82;;;;;;;;;;4985680;28;20029;-71
2023/08/03 02:03:45;;;;;;;15.15;4.05;;;;;;;;;;5013288;28;20087;-72
2023/08/03 02:06:10;;;;;;;17.20;4.72;;;;;;;;;;5014108;28;20136;-71
2023/08/03 02:08:35;;;;;;;13.98;4.32;;;;;;;;;;5015698;28;20028;-72
2023/08/03 02:11:01;;;;;;;20.38;5.10;;;;;;;;;;5017164;28;20033;-74
2023/08/03 02:13:26;;;;;;;19.45;4.97;;;;;;;;;;5013446;28;20072;-71
2023/08/03 02:15:51;;;;;;;15.88;4.65;;;;;;;;;;5012905;28;20049;-72
2023/08/03 02:18:17;;;;;;;14.15;4.28;;;;;;;;;;5012458;28;20029;-72
2023/08/03 02:20:42;;;;;;;18.40;4.88;;;;;;;;;;5010517;28;21239;-72
2023/08/03 02:23:07;;;;;;;24.45;5.07;;;;;;;;;;4993565;28;20061;-72
2023/08/03 02:25:32;;;;;;;16.70;4.45;;;;;;;;;;5011366;28;20041;-73
2023/08/03 02:27:58;;;;;;;16.35;4.65;;;;;;;;;;4996453;28;20044;-72
2023/08/03 02:30:23;;;;;;;13.40;4.35;;;;;;;;;;5011630;28;20037;-72
2023/08/03 02:32:48;;;;;;;17.50;4.65;;;;;;;;;;4994388;28;20044;-72
2023/08/03 02:35:14;;;;;;;16.85;5.05;;;;;;;;;;5014241;28;20168;-72
2023/08/03 02:37:39;;;;;;;13.15;4.22;;;;;;;;;;5000577;28;20037;-70
2023/08/03 02:40:08;;;;;;;21.25;5.03;;;;;;;;;;5013732;28;20033;-71
2023/08/03 02:42:33;;;;;;;21.52;5.57;;;;;;;;;;5014278;28;20064;-71
2023/08/03 02:44:59;;;;;;;16.58;5.57;;;;;;;;;;5015253;28;20763;-72
2023/08/03 02:47:24;;;;;;;17.40;5.18;;;;;;;;;;4994945;28;20103;-73
2023/08/03 02:49:54;;;;;;;17.95;5.10;;;;;;;;;;4997759;28;21142;-72
2023/08/03 02:52:19;;;;;;;16.85;5.38;;;;;;;;;;4996635;28;20049;-71
2023/08/03 02:54:44;;;;;;;16.63;5.43;;;;;;;;;;5013623;28;20047;-71
2023/08/03 02:57:12;;;;;;;18.13;5.18;;;;;;;;;;4996689;28;20037;-72
2023/08/03 02:59:37;;;;;;;17.90;5.00;;;;;;;;;;5014466;28;20139;-71
2023/08/03 03:02:03;;;;;;;23.85;5.45;;;;;;;;;;4995214;28;20062;-71
2023/08/03 03:04:28;;;;;;;23.20;5.40;;;;;;;;;;4982578;28;20124;-72
2023/08/03 03:06:53;;;;;;;16.25;4.82;;;;;;;;;;5013525;28;20029;-73
2023/08/03 03:09:19;;;;;;;14.95;4.25;;;;;;;;;;5014616;28;20036;-72
2023/08/03 03:11:46;;;;;;;13.55;4.40;;;;;;;;;;5011742;28;20075;-72
2023/08/03 03:14:11;;;;;;;16.45;4.13;;;;;;;;;;4998367;28;20041;-69
2023/08/03 03:16:37;;;;;;;14.82;3.78;;;;;;;;;;5012628;28;20041;-71
2023/08/03 03:19:02;;;;;;;15.35;4.40;;;;;;;;;;4994989;28;21850;-72
2023/08/03 03:21:27;;;;;;;14.30;3.78;;;;;;;;;;4994933;28;20090;-72
2023/08/03 03:23:55;;;;;;;18.95;4.20;;;;;;;;;;5012814;28;20028;-72
2023/08/03 03:26:20;;;;;;;13.07;3.05;;;;;;;;;;4996500;28;20770;-71
2023/08/03 03:28:46;;;;;;;14.05;2.95;;;;;;;;;;4998970;28;20033;-72
2023/08/03 03:31:13;;;;;;;13.60;2.97;;;;;;;;;;5011690;28;20602;-72
2023/08/03 03:33:38;;;;;;;17.17;3.30;;;;;;;;;;5013407;28;20034;-73
2023/08/03 03:36:04;;;;;;;16.35;3.40;;;;;;;;;;5012375;28;20029;-73
2023/08/03 03:38:29;;;;;;;16.77;3.00;;;;;;;;;;5011672;28;20082;-71
2023/08/03 03:40:54;;;;;;;19.40;2.90;;;;;;;;;;4996202;28;20055;-70
2023/08/03 03:43:20;;;;;;;13.73;2.95;;;;;;;;;;5013118;28;20115;-70
2023/08/03 03:45:45;;;;;;;17.85;2.88;;;;;;;;;;5014104;28;20892;-72
2023/08/03 03:48:10;;;;;;;9.25;2.22;;;;;;;;;;5009803;28;20688;-71
2023/08/03 03:50:38;;;;;;;15.27;2.67;;;;;;;;;;5009918;28;20072;-71
2023/08/03 03:53:03;;;;;;;18.35;2.95;;;;;;;;;;5012748;28;20045;-72
2023/08/03 03:55:29;;;;;;;16.70;2.50;;;;;;;;;;5014764;28;20119;-72
2023/08/03 03:57:58;;;;;;;15.10;2.83;;;;;;;;;;5012237;28;20044;-71
2023/08/03 04:00:24;;;;;;;16.38;2.55;;;;;;;;;;5014924;28;20040;-74
2023/08/03 04:02:50;;;;;;;19.50;3.03;;;;;;;;;;5018640;28;20049;-77
2023/08/03 04:05:17;;;;;;;16.55;3.33;;;;;;;;;;5019539;28;20040;-76
2023/08/03 04:07:46;;;;;;;15.93;2.80;;;;;;;;;;5017653;28;20038;-74
2023/08/03 04:10:11;;;;;;;18.88;3.58;;;;;;;;;;5017846;28;20078;-77
2023/08/03 04:12:36;;;;;;;12.90;2.83;;;;;;;;;;5018967;28;20305;-77
2023/08/03 04:15:02;;;;;;;17.45;2.75;;;;;;;;;;5000250;28;20438;-77
2023/08/03 04:17:27;;;;;;;11.98;2.30;;;;;;;;;;4999409;28;20043;-76
2023/08/03 04:19:52;;;;;;;17.05;2.90;;;;;;;;;;5015099;28;20037;-76
2023/08/03 04:22:18;;;;;;;17.65;3.15;;;;;;;;;;5016303;28;20497;-74
2023/08/03 04:24:43;;;;;;;19.55;3.65;;;;;;;;;;4999180;28;20068;-77
2023/08/03 04:27:08;;;;;;;17.45;3.17;;;;;;;;;;5018090;28;20124;-77
2023/08/03 04:29:34;;;;;;;24.60;3.67;;;;;;;;;;5018761;28;20037;-74
2023/08/03 04:32:04;;;;;;;19.67;3.70;;;;;;;;;;5017244;28;20828;-74
2023/08/03 04:34:30;;;;;;;16.33;3.88;;;;;;;;;;5019171;28;20047;-76
2023/08/03 04:36:55;;;;;;;20.88;3.95;;;;;;;;;;5001383;28;20041;-77
2023/08/03 04:39:20;;;;;;;27.98;4.18;;;;;;;;;;5018472;28;20029;-74
2023/08/03 04:41:46;;;;;;;21.20;3.53;;;;;;;;;;4998730;28;20083;-74
2023/08/03 04:44:11;;;;;;;22.20;4.00;;;;;;;;;;5017278;28;20029;-74
2023/08/03 04:46:38;;;;;;;15.25;3.45;;;;;;;;;;5015138;28;20593;-74
2023/08/03 04:49:10;;;;;;;15.55;3.97;;;;;;;;;;4998760;28;20533;-75
2023/08/03 04:51:35;;;;;;;19.25;4.28;;;;;;;;;;4995981;28;20037;-75
2023/08/03 04:54:00;;;;;;;26.02;4.03;;;;;;;;;;5015139;28;20092;-75
2023/08/03 04:56:28;;;;;;;30.52;4.82;;;;;;;;;;5009019;28;20065;-75
2023/08/03 04:58:56;;;;;;;32.17;5.30;;;;;;;;;;5006228;28;20422;-74
2023/08/03 05:01:21;;;;;;;28.65;5.03;;;;;;;;;;5013471;28;20061;-74
2023/08/03 05:03:46;;;;;;;29.50;4.72;;;;;;;;;;5018268;28;20037;-73
2023/08/03 05:06:12;;;;;;;25.25;4.50;;;;;;;;;;5016159;28;20069;-72
2023/08/03 05:08:37;;;;;;;26.25;4.22;;;;;;;;;;5019069;28;20037;-72
2023/08/03 05:11:02;;;;;;;22.17;4.35;;;;;;;;;;5017203;28;20537;-73
2023/08/03 05:13:28;;;;;;;26.13;4.68;;;;;;;;;;5015303;28;20048;-73
2023/08/03 05:15:53;;;;;;;22.98;3.88;;;;;;;;;;4997652;28;20057;-72
2023/08/03 05:18:18;;;;;;;26.63;4.80;;;;;;;;;;4980535;28;20536;-73
2023/08/03 05:20:45;;;;;;;23.33;4.35;;;;;;;;;;4999935;28;20083;-72
2023/08/03 05:23:13;;;;;;;27.45;4.63;;;;;;;;;;5015710;28;20628;-72
2023/08/03 05:25:38;;;;;;;26.30;4.47;;;;;;;;;;4998851;28;20124;-71
2023/08/03 05:28:04;;;;;;;25.65;4.07;;;;;;;;;;5016784;28;20047;-72
2023/08/03 05:30:29;;;;;;;20.73;4.38;;;;;;;;;;4997089;28;21135;-72
2023/08/03 05:32:54;;;;;;;18.60;4.18;;;;;;;;;;5018116;28;20071;-72
2023/08/03 05:35:20;;;;;;;19.90;3.53;;;;;;;;;;5015585;28;20468;-72
2023/08/03 05:37:45;;;;;;;15.63;3.70;;;;;;;;;;5000558;28;20588;-73
2023/08/03 05:40:11;;;;;;;18.40;4.07;;;;;;;;;;5015385;28;20158;-72
2023/08/03 05:42:40;;;;;;;19.83;3.50;;;;;;;;;;4980530;28;20766;-73
2023/08/03 05:45:33;;;;;;;18.52;3.65;;;;;;;;;;5016289;28;20125;-72
2023/08/03 05:47:59;;;;;;;18.70;3.05;;;;;;;;;;4998195;28;20064;-72
2023/08/03 05:50:24;;;;;;;13.55;2.83;;;;;;;;;;5015890;28;20512;-72
2023/08/03 05:52:50;;;;;;;13.98;2.70;;;;;;;;;;5014931;28;20072;-73
2023/08/03 05:55:16;;;;;;;16.35;3.15;;;;;;;;;;4997476;28;20041;-73
2023/08/03 05:57:41;;;;;;;15.77;2.72;;;;;;;;;;5013845;28;20044;-75
2023/08/03 06:00:16;;;;;;;17.52;3.45;;;;;;;;;;5014985;28;20045;-73
2023/08/03 06:02:43;;;;;;;12.88;2.70;;;;;;;;;;5012451;28;20549;-72
2023/08/03 06:05:28;;;;;;;10.52;1.60;;;;;;;;;;4996117;28;21598;-72
2023/08/03 06:07:54;;;;;;;12.68;2.30;;;;;;;;;;4998965;28;20039;-73
2023/08/03 06:10:19;;;;;;;12.40;2.35;;;;;;;;;;4995293;28;20040;-72
2023/08/03 06:12:47;;;;;;;8.32;1.92;;;;;;;;;;4977775;28;20112;-72
2023/08/03 06:15:12;;;;;;;15.00;2.55;;;;;;;;;;4996150;28;22066;-71
2023/08/03 06:17:37;;;;;;;14.23;3.17;;;;;;;;;;5014301;28;20037;-71
2023/08/03 06:20:11;;;;;;;12.10;3.08;;;;;;;;;;5015855;28;20110;-71
2023/08/03 06:22:36;;;;;;;15.05;3.50;;;;;;;;;;4995044;28;20128;-72
2023/08/03 06:25:05;;;;;;;14.25;3.25;;;;;;;;;;5013186;28;20051;-70
2023/08/03 06:27:30;;;;;;;14.10;2.85;;;;;;;;;;5015604;28;20041;-72
2023/08/03 06:29:55;;;;;;;12.32;2.60;;;;;;;;;;4999989;28;20033;-71
2023/08/03 06:32:23;;;;;;;15.00;2.92;;;;;;;;;;5015244;28;20040;-70
2023/08/03 06:34:48;;;;;;;13.75;2.67;;;;;;;;;;5000943;28;20087;-70
2023/08/03 06:37:13;;;;;;;12.00;2.50;;;;;;;;;;5015726;28;20033;-70
2023/08/03 06:39:39;;;;;;;15.18;3.13;;;;;;;;;;5012962;28;20033;-72
2023/08/03 06:42:04;;;;;;;12.65;2.50;;;;;;;;;;4998142;28;20079;-72
2023/08/03 06:44:30;;;;;;;13.00;2.80;;;;;;;;;;5017113;28;20571;-71
2023/08/03 06:46:56;;;;;;;10.25;2.50;;;;;;;;;;5015715;28;20086;-72
2023/08/03 06:49:22;;;;;;;16.70;3.00;;;;;;;;;;5017925;28;20067;-71
2023/08/03 06:51:48;;;;;;;12.55;2.55;;;;;;;;;;5014640;28;20056;-71
2023/08/03 06:54:15;;;;;;;12.85;2.42;;;;;;;;;;5015080;28;20053;-70
2023/08/03 06:56:41;;;;;;;13.68;3.10;;;;;;;;;;5015617;28;20071;-72
2023/08/03 06:59:06;;;;;;;11.32;2.90;;;;;;;;;;4993341;28;20058;-72
2023/08/03 07:01:33;;;;;;;12.77;2.55;;;;;;;;;;5013735;28;20435;-71
2023/08/03 07:03:59;;;;;;;12.38;2.80;;;;;;;;;;5011533;28;20065;-72
2023/08/03 07:06:26;;;;;;;10.38;2.47;;;;;;;;;;5015358;28;20028;-71
2023/08/03 07:08:54;;;;;;;9.32;2.42;;;;;;;;;;5013464;28;20438;-69
2023/08/03 07:11:24;;;;;;;10.82;2.70;;;;;;;;;;5014560;28;20043;-70
2023/08/03 07:13:49;;;;;;;12.65;2.53;;;;;;;;;;5012677;28;20029;-71
2023/08/03 07:16:15;;;;;;;9.68;2.58;;;;;;;;;;5005147;28;20038;-72
2023/08/03 07:18:40;;;;;;;13.73;2.97;;;;;;;;;;4990307;28;20543;-71
2023/08/03 07:21:06;;;;;;;12.85;2.53;;;;;;;;;;4993188;28;20025;-70
2023/08/03 07:23:31;;;;;;;13.13;2.80;;;;;;;;;;4996731;28;20041;-70
2023/08/03 07:25:58;;;;;;;12.88;2.60;;;;;;;;;;5011869;28;20563;-70
2023/08/03 07:28:26;;;;;;;12.75;3.00;;;;;;;;;;5013069;28;20602;-70
2023/08/03 07:30:51;;;;;;;14.57;2.80;;;;;;;;;;5010432;28;20044;-70
2023/08/03 07:33:17;;;;;;;12.75;2.65;;;;;;;;;;4994401;28;20608;-72
2023/08/03 07:35:42;;;;;;;15.52;2.80;;;;;;;;;;5014475;28;20762;-72
2023/08/03 07:38:07;;;;;;;12.85;2.47;;;;;;;;;;5013520;28;20076;-73
2023/08/03 07:40:33;;;;;;;15.15;2.58;;;;;;;;;;5017863;28;20090;-74
2023/08/03 07:42:58;;;;;;;10.45;2.33;;;;;;;;;;5015223;28;20076;-72
2023/08/03 07:45:24;;;;;;;14.57;2.45;;;;;;;;;;5016326;28;20055;-71
2023/08/03 07:47:49;;;;;;;9.00;2.13;;;;;;;;;;5017256;28;20040;-73
2023/08/03 07:50:14;;;;;;;10.65;2.33;;;;;;;;;;5020709;28;20038;-73
2023/08/03 07:52:40;;;;;;;12.50;2.63;;;;;;;;;;5023002;28;20041;-73
2023/08/03 07:55:05;;;;;;;18.55;2.70;;;;;;;;;;4999950;28;20312;-69
2023/08/03 07:57:31;;;;;;;11.88;2.08;;;;;;;;;;5017490;28;20473;-73
2023/08/03 07:59:59;;;;;;;11.15;2.50;;;;;;;;;;5002061;28;20041;-71
2023/08/03 08:02:25;;;;;;;20.42;3.47;;;;;;;;;;4988583;28;20056;-73
2023/08/03 08:04:50;;;;;;;20.60;3.50;;;;;;;;;;5004956;28;20037;-74
2023/08/03 08:07:19;;;;;;;19.58;3.30;;;;;;;;;;4975614;28;20155;-73
2023/08/03 08:09:44;;;;;;;23.60;3.70;;;;;;;;;;4995760;28;20043;-70
2023/08/03 08:12:10;;;;;;;27.02;3.90;;;;;;;;;;5001655;28;20703;-72
2023/08/03 08:14:35;;;;;;;21.50;3.17;;;;;;;;;;4978900;28;20083;-70
2023/08/03 08:17:02;;;;;;;18.17;3.83;;;;;;;;;;4984718;28;20034;-71
2023/08/03 08:19:33;;;;;;;14.43;3.13;;;;;;;;;;5017861;28;20037;-73
2023/08/03 08:22:02;;;;;;;;;;;;;;;;;;5018834;28;20049;-71
2023/08/03 08:24:27;;;;;;;17.13;3.63;;;;;;;;;;4986576;28;19917;-73
2023/08/03 08:26:52;;;;;;;19.67;3.95;;;;;;;;;;5021417;28;20519;-73
2023/08/03 08:29:18;;;;;;;17.50;3.15;;;;;;;;;;5021220;28;20063;-72
2023/08/03 08:31:43;;;;;;;9.88;1.95;;;;;;;;;;5018532;28;20063;-72
2023/08/03 08:34:11;;;;;;;16.25;2.25;;;;;;;;;;4998042;28;20067;-72
2023/08/03 08:36:37;;;;;;;17.42;3.08;;;;;;;;;;5008869;28;20037;-72
2023/08/03 08:39:03;;;;;;;16.52;2.60;;;;;;;;;;4993644;28;20042;-72
2023/08/03 08:41:28;;;;;;;15.20;2.45;;;;;;;;;;5014281;28;20105;-71
2023/08/03 08:43:53;;;;;;;20.50;3.45;;;;;;;;;;5016501;28;20040;-71
2023/08/03 08:46:19;;;;;;;14.63;3.05;;;;;;;;;;5019037;28;20057;-71
2023/08/03 08:48:44;;;;;;;19.13;2.78;;;;;;;;;;4994540;28;20130;-70
2023/08/03 08:51:10;;;;;;;16.23;2.72;;;;;;;;;;5008130;28;20032;-71
2023/08/03 08:53:35;;;;;;;14.82;2.58;;;;;;;;;;5013132;28;20025;-66
2023/08/03 08:56:03;;;;;;;11.70;2.00;;;;;;;;;;5018875;28;20040;-68
2023/08/03 08:58:28;;;;;;;15.88;2.67;;;;;;;;;;5016990;28;20034;-72
2023/08/03 09:01:01;;;;;;;16.65;3.25;;;;;;;;;;5010726;28;20466;-72
2023/08/03 09:03:27;;;;;;;15.88;2.65;;;;;;;;;;5017317;28;20052;-69
2023/08/03 09:05:59;;;;;;;15.60;2.63;;;;;;;;;;5018041;28;20121;-70
2023/08/03 09:08:29;;;;;;;17.63;3.15;;;;;;;;;;4998672;28;20048;-71
2023/08/03 09:10:55;;;;;;;16.90;3.00;;;;;;;;;;5010636;28;20033;-72
2023/08/03 09:13:31;;;;;;;15.05;2.70;;;;;;;;;;4999841;28;20090;-73
2023/08/03 09:15:57;;;;;;;14.55;3.00;;;;;;;;;;4997419;28;20041;-71
2023/08/03 09:18:25;;;;;;;15.20;3.47;;;;;;;;;;5013477;28;20124;-70
2023/08/03 09:20:50;;;;;;;20.27;3.53;;;;;;;;;;5016728;28;20040;-69
2023/08/03 09:23:30;;;;;;;18.73;3.60;;;;;;;;;;4999582;28;20041;-70
2023/08/03 09:25:55;;;;;;;19.67;3.53;;;;;;;;;;5014451;28;20048;-72
2023/08/03 09:28:20;;;;;;;16.00;3.60;;;;;;;;;;4998895;28;20044;-72
2023/08/03 09:30:52;;;;;;;12.63;2.58;;;;;;;;;;5016542;28;20047;-70
2023/08/03 09:33:17;;;;;;;21.65;4.03;;;;;;;;;;5017530;28;20520;-70
2023/08/03 09:35:44;;;;;;;22.90;4.18;;;;;;;;;;5003785;28;20045;-70
2023/08/03 09:38:23;;;;;;;21.27;4.00;;;;;;;;;;4993156;28;20893;-73
2023/08/03 09:40:50;;;;;;;18.33;3.72;;;;;;;;;;5018199;28;20033;-73
2023/08/03 09:43:16;;;;;;;26.17;4.78;;;;;;;;;;5015532;28;21192;-73
2023/08/03 09:45:42;;;;;;;18.85;4.32;;;;;;;;;;4983795;28;20037;-76
2023/08/03 09:48:09;;;;;;;23.90;4.82;;;;;;;;;;4991568;28;20040;-73
2023/08/03 09:50:34;;;;;;;17.27;3.47;;;;;;;;;;4980531;28;20049;-75
2023/08/03 09:53:01;;;;;;;20.65;3.78;;;;;;;;;;5006528;28;20068;-77
2023/08/03 09:55:31;;;;;;;18.20;3.70;;;;;;;;;;4979833;28;20041;-72
2023/08/03 09:58:12;;;;;;;14.07;3.17;;;;;;;;;;4979033;28;20033;-70
2023/08/03 10:00:38;;;;;;;14.40;2.80;;;;;;;;;;4986087;28;20072;-74
2023/08/03 10:03:06;;;;;;;14.10;3.10;;;;;;;;;;4995286;28;20130;-72
2023/08/03 10:05:35;;;;;;;22.75;3.80;;;;;;;;;;4994072;28;20032;-69
2023/08/03 10:08:14;;;;;;;23.25;3.33;;;;;;;;;;5008370;28;20037;-69
2023/08/03 10:10:42;;;;;;;19.27;3.22;;;;;;;;;;5013150;28;20059;-73
2023/08/03 10:13:08;;;;;;;18.70;3.85;;;;;;;;;;4995405;28;20037;-73
2023/08/03 10:15:35;;;;;;;15.63;3.35;;;;;;;;;;5016828;28;20176;-68
2023/08/03 10:18:02;;;;;;;14.60;3.15;;;;;;;;;;4981096;28;20041;-74
2023/08/03 10:20:27;;;;;;;16.80;3.35;;;;;;;;;;4991492;28;20052;-73
2023/08/03 10:23:08;;;;;;;17.52;3.38;;;;;;;;;;5012570;28;20512;-72
2023/08/03 10:25:49;;;;;;;16.35;3.15;;;;;;;;;;4997170;28;20064;-73
2023/08/03 10:28:17;;;;;;;14.43;3.25;;;;;;;;;;5011332;28;20984;-70
2023/08/03 10:31:07;;;;;;;14.98;3.50;;;;;;;;;;5010994;28;20028;-69
2023/08/03 10:33:49;;;;;;;20.27;4.30;;;;;;;;;;5011888;28;20281;-71
2023/08/03 10:36:26;;;;;;;22.13;3.72;;;;;;;;;;5000966;28;20033;-72
2023/08/03 10:38:54;;;;;;;24.58;4.78;;;;;;;;;;4999432;28;20047;-72
2023/08/03 10:41:21;;;;;;;27.38;4.70;;;;;;;;;;4987219;28;20507;-73
2023/08/03 10:44:07;;;;;;;20.75;3.88;;;;;;;;;;4991579;28;20099;-72
2023/08/03 10:46:36;;;;;;;21.13;4.07;;;;;;;;;;4977520;28;20033;-70
2023/08/03 10:49:19;;;;;;;21.40;3.70;;;;;;;;;;4967526;28;20041;-71
2023/08/03 10:51:51;;;;;;;23.65;4.07;;;;;;;;;;4953983;28;20764;-73
2023/08/03 10:54:42;;;;;;;20.67;4.18;;;;;;;;;;4992267;28;20093;-68
2023/08/03 10:57:12;;;;;;;20.05;3.80;;;;;;;;;;5002475;28;20492;-73
2023/08/03 10:59:40;;;;;;;15.52;3.60;;;;;;;;;;4996905;28;20041;-73
2023/08/03 11:02:08;;;;;;;20.65;4.13;;;;;;;;;;5008117;28;20048;-72
2023/08/03 11:04:34;;;;;;;10.38;2.97;;;;;;;;;;4976967;28;20033;-73
2023/08/03 11:07:00;;;;;;;16.48;4.18;;;;;;;;;;5011986;28;20063;-71
2023/08/03 11:09:26;;;;;;;23.05;4.20;;;;;;;;;;5014174;28;20758;-71
2023/08/03 11:11:55;;;;;;;16.95;4.60;;;;;;;;;;5009104;28;20048;-74
2023/08/03 11:14:20;;;;;;;23.52;4.70;;;;;;;;;;5012343;28;20025;-70
2023/08/03 11:16:46;;;;;;;20.77;4.55;;;;;;;;;;5004498;28;20035;-71
2023/08/03 11:19:13;;;;;;;20.90;4.60;;;;;;;;;;5008925;28;20043;-73
2023/08/03 11:21:42;;;;;;;21.33;4.50;;;;;;;;;;5003209;28;20248;-70
2023/08/03 11:24:07;;;;;;;18.67;4.10;;;;;;;;;;5013028;28;20067;-72
2023/08/03 11:26:32;;;;;;;21.45;4.55;;;;;;;;;;5011282;28;20056;-73
2023/08/03 11:28:58;;;;;;;19.92;4.47;;;;;;;;;;5011260;28;20033;-69
2023/08/03 11:31:23;;;;;;;24.23;4.60;;;;;;;;;;5008014;28;20033;-73
2023/08/03 11:33:49;;;;;;;20.83;4.25;;;;;;;;;;5009379;28;20103;-72
2023/08/03 11:36:20;;;;;;;26.52;5.20;;;;;;;;;;4980786;28;20036;-73
2023/08/03 11:38:46;;;;;;;25.23;4.53;;;;;;;;;;4999279;28;20032;-73
2023/08/03 11:41:12;;;;;;;17.63;3.75;;;;;;;;;;4984287;28;20067;-72
2023/08/03 11:43:41;;;;;;;22.45;4.00;;;;;;;;;;5009472;28;20049;-74
2023/08/03 11:46:06;;;;;;;24.90;4.70;;;;;;;;;;5011483;28;20038;-72
2023/08/03 11:48:32;;;;;;;14.85;4.03;;;;;;;;;;5009918;28;22553;-69
2023/08/03 11:50:58;;;;;;;19.45;3.80;;;;;;;;;;4992628;28;20053;-70
2023/08/03 11:53:27;;;;;;;22.52;4.05;;;;;;;;;;4993835;28;22382;-71
2023/08/03 11:55:52;;;;;;;22.27;4.82;;;;;;;;;;4994726;28;20044;-71
2023/08/03 11:58:26;;;;;;;24.80;4.68;;;;;;;;;;5011405;28;21072;-71
2023/08/03 12:01:03;;;;;;;23.60;4.00;;;;;;;;;;4978122;28;20056;-71
2023/08/03 12:03:32;;;;;;;18.17;3.38;;;;;;;;;;5014591;28;20503;-74
2023/08/03 12:06:05;;;;;;;16.02;3.97;;;;;;;;;;5011093;28;20045;-71
2023/08/03 12:08:30;;;;;;;18.23;3.80;;;;;;;;;;5013356;28;20633;-70
2023/08/03 12:11:00;;;;;;;15.90;3.95;;;;;;;;;;5010623;28;20091;-69
2023/08/03 12:13:25;;;;;;;16.50;3.85;;;;;;;;;;4994635;28;20033;-69
2023/08/03 12:15:51;;;;;;;17.02;3.30;;;;;;;;;;4998520;28;20029;-70
2023/08/03 12:18:18;;;;;;;20.55;4.07;;;;;;;;;;4995629;28;20397;-70
2023/08/03 12:20:47;;;;;;;25.55;4.57;;;;;;;;;;4997892;28;20056;-71
2023/08/03 12:23:13;;;;;;;19.35;3.97;;;;;;;;;;5014232;28;20067;-71
2023/08/03 12:25:38;;;;;;;19.30;3.90;;;;;;;;;;5016577;28;20526;-68
2023/08/03 12:28:04;;;;;;;16.50;3.72;;;;;;;;;;5004403;28;20029;-69
2023/08/03 12:30:29;;;;;;;20.58;4.03;;;;;;;;;;5017538;28;20037;-70
2023/08/03 12:32:57;;;;;;;17.95;3.95;;;;;;;;;;5017933;28;20585;-73
2023/08/03 12:35:22;;;;;;;20.02;4.60;;;;;;;;;;5016774;28;20033;-67
2023/08/03 12:37:48;;;;;;;26.63;3.88;;;;;;;;;;4999398;28;20045;-71
2023/08/03 12:40:13;;;;;;;18.58;4.03;;;;;;;;;;5005021;28;20029;-69
2023/08/03 12:42:41;;;;;;;27.55;4.30;;;;;;;;;;5018393;28;20103;-71
2023/08/03 12:45:07;;;;;;;17.80;3.50;;;;;;;;;;5002873;28;20120;-68
2023/08/03 12:47:35;;;;;;;22.67;4.22;;;;;;;;;;5017772;28;20086;-68
2023/08/03 12:50:00;;;;;;;24.75;3.88;;;;;;;;;;4997560;28;20945;-69
2023/08/03 12:52:26;;;;;;;16.10;4.07;;;;;;;;;;5013740;28;20033;-67
2023/08/03 12:54:55;;;;;;;19.17;4.22;;;;;;;;;;4997927;28;20164;-69
2023/08/03 12:57:20;;;;;;;24.80;5.05;;;;;;;;;;5013230;28;20551;-68
2023/08/03 12:59:46;;;;;;;18.63;3.97;;;;;;;;;;5017106;28;20312;-68
2023/08/03 13:02:11;;;;;;;34.00;4.80;;;;;;;;;;4981230;28;20048;-65
2023/08/03 13:04:36;;;;;;;23.65;3.90;;;;;;;;;;5015003;28;20485;-66
2023/08/03 13:07:02;;;;;;;22.27;3.83;;;;;;;;;;5012562;28;20267;-67
2023/08/03 13:09:29;;;;;;;18.90;3.45;;;;;;;;;;5015077;28;20040;-68
2023/08/03 13:11:56;;;;;;;17.80;3.22;;;;;;;;;;5013595;28;20033;-66
2023/08/03 13:14:24;;;;;;;21.10;3.90;;;;;;;;;;4981689;28;20041;-65
2023/08/03 13:16:52;;;;;;;28.52;4.65;;;;;;;;;;5012351;28;20033;-68
2023/08/03 13:19:17;;;;;;;19.23;3.70;;;;;;;;;;5011649;28;20099;-68
2023/08/03 13:21:43;;;;;;;21.40;3.85;;;;;;;;;;4981955;28;20087;-66
2023/08/03 13:24:08;;;;;;;25.75;3.92;;;;;;;;;;5010808;28;20389;-67
2023/08/03 13:26:33;;;;;;;25.92;4.20;;;;;;;;;;5012537;28;20029;-69
2023/08/03 13:28:59;;;;;;;18.17;3.45;;;;;;;;;;5012714;28;20033;-71
2023/08/03 13:31:24;;;;;;;23.73;4.60;;;;;;;;;;5012135;28;20701;-67
2023/08/03 13:33:50;;;;;;;19.10;4.22;;;;;;;;;;5008884;28;20543;-70
2023/08/03 13:36:15;;;;;;;18.65;4.20;;;;;;;;;;4994395;28;20033;-71
2023/08/03 13:38:42;;;;;;;23.92;4.82;;;;;;;;;;5011073;28;20128;-67
2023/08/03 13:41:08;;;;;;;16.35;3.60;;;;;;;;;;4994093;28;20033;-68
2023/08/03 13:43:34;;;;;;;24.33;4.68;;;;;;;;;;5011863;28;20103;-68
2023/08/03 13:46:00;;;;;;;19.33;3.67;;;;;;;;;;5015817;28;20134;-68
2023/08/03 13:48:25;;;;;;;19.35;4.00;;;;;;;;;;5009009;28;20646;-68
2023/08/03 13:50:50;;;;;;;18.58;3.90;;;;;;;;;;5002497;28;20418;-68
2023/08/03 13:53:16;;;;;;;19.83;3.30;;;;;;;;;;5010933;28;20032;-66
2023/08/03 13:55:46;;;;;;;19.10;3.78;;;;;;;;;;4994515;28;20122;-68
2023/08/03 13:58:12;;;;;;;22.63;3.70;;;;;;;;;;5001348;28;20155;-67
2023/08/03 14:00:37;;;;;;;21.05;3.90;;;;;;;;;;4998388;28;20397;-68
2023/08/03 14:03:05;;;;;;;29.50;4.15;;;;;;;;;;5015075;28;20053;-65
2023/08/03 14:05:31;;;;;;;25.38;3.55;;;;;;;;;;5015496;28;20158;-70
2023/08/03 14:07:56;;;;;;;20.42;3.30;;;;;;;;;;5016940;28;20088;-70
2023/08/03 14:10:21;;;;;;;19.92;3.95;;;;;;;;;;5015813;28;20068;-65
2023/08/03 14:12:52;;;;;;;17.15;3.70;;;;;;;;;;4994007;28;20037;-69
2023/08/03 14:15:18;;;;;;;23.13;4.38;;;;;;;;;;5014026;28;20037;-66
2023/08/03 14:17:45;;;;;;;14.50;3.22;;;;;;;;;;5012884;28;20083;-67
2023/08/03 14:20:11;;;;;;;21.63;3.20;;;;;;;;;;5014014;28;20107;-69
2023/08/03 14:22:36;;;;;;;18.02;3.75;;;;;;;;;;4978254;28;20504;-72
2023/08/03 14:25:01;;;;;;;22.60;3.67;;;;;;;;;;4998535;28;20533;-68
2023/08/03 14:27:33;;;;;;;25.23;4.25;;;;;;;;;;4999170;28;20750;-69
2023/08/03 14:30:01;;;;;;;14.93;3.53;;;;;;;;;;4995183;28;20573;-69